首页
METAR-TAF:

METAR-TAF

机场 :

烏日霍羅德國際機場

乌日霍罗德, 乌克兰

纬度: 48-38-05N, 经度: 022-15-53E, 海拔: 117米

当前天气观测

该预报发布于4小时和4分钟前的16:00 UTC
风速4节,风向东转东南
温度 7°C
湿度 66%
气压 1016 hPa
能见度10公里或以上

METAR: UKLU 191600Z 11002MPS 9999 NSC 07/01 Q1016 R10/090070 NOSIG

时间: 22:04 (20:04 UTC)

预报

该预报发布于6小时和2分钟前的14:02 UTC
预报有效从19日的 15点(UTC)到 19日的 24点(UTC)
风速6节,风向东南
能见度10公里或以上

TAF: UKLU 191402Z 1915/1924 13003MPS 9999 NSC TX08/1915Z TN02/1924Z

超过4000个机场的气象观测和天气预报(METAR&TAF报告)。

可查询的气象台以黄色和红色小点在地图上表示。

将鼠标移到小点上方,可查看气象台名称。

然后点击查看天气观测和预报。

如需切换地图:点击带黑十字的绿色按钮放大地图;点击带横线的绿色按钮缩小地图;或者点击绿色箭头查看邻近地区的地图。


METAR-TAF: